sensor_id;sensor_type;location;lat;lon;timestamp;P1;durP1;ratioP1;P2;durP2;ratioP2
17814;SDS011;9031;50.974;11.330;2023-03-14T00:01:21;1.00;;;0.90;;
17814;SDS011;9031;50.974;11.330;2023-03-14T00:03:47;0.83;;;0.60;;
17814;SDS011;9031;50.974;11.330;2023-03-14T00:06:13;0.93;;;0.70;;
17814;SDS011;9031;50.974;11.330;2023-03-14T00:08:39;0.80;;;0.80;;
17814;SDS011;9031;50.974;11.330;2023-03-14T00:11:06;0.87;;;0.87;;
17814;SDS011;9031;50.974;11.330;2023-03-14T00:13:32;1.27;;;0.80;;
17814;SDS011;9031;50.974;11.330;2023-03-14T00:16:01;1.40;;;0.60;;
17814;SDS011;9031;50.974;11.330;2023-03-14T00:18:28;1.17;;;0.83;;
17814;SDS011;9031;50.974;11.330;2023-03-14T00:20:53;0.80;;;0.80;;
17814;SDS011;9031;50.974;11.330;2023-03-14T00:23:21;0.90;;;0.90;;
17814;SDS011;9031;50.974;11.330;2023-03-14T00:25:47;0.73;;;0.70;;
17814;SDS011;9031;50.974;11.330;2023-03-14T00:28:12;1.27;;;0.90;;
17814;SDS011;9031;50.974;11.330;2023-03-14T00:30:38;0.70;;;0.60;;
17814;SDS011;9031;50.974;11.330;2023-03-14T00:33:03;1.67;;;0.90;;
17814;SDS011;9031;50.974;11.330;2023-03-14T00:35:29;1.37;;;1.00;;
17814;SDS011;9031;50.974;11.330;2023-03-14T00:37:54;0.60;;;0.60;;
17814;SDS011;9031;50.974;11.330;2023-03-14T00:40:20;0.80;;;0.80;;
17814;SDS011;9031;50.974;11.330;2023-03-14T00:42:45;0.83;;;0.83;;
17814;SDS011;9031;50.974;11.330;2023-03-14T00:45:11;1.17;;;0.60;;
17814;SDS011;9031;50.974;11.330;2023-03-14T00:47:36;0.90;;;0.73;;
17814;SDS011;9031;50.974;11.330;2023-03-14T00:50:02;0.60;;;0.60;;
17814;SDS011;9031;50.974;11.330;2023-03-14T00:52:28;0.83;;;0.67;;
17814;SDS011;9031;50.974;11.330;2023-03-14T00:54:53;0.60;;;0.60;;
17814;SDS011;9031;50.974;11.330;2023-03-14T00:57:19;0.67;;;0.67;;
17814;SDS011;9031;50.974;11.330;2023-03-14T00:59:44;1.07;;;0.60;;
17814;SDS011;9031;50.974;11.330;2023-03-14T01:02:10;0.90;;;0.70;;
17814;SDS011;9031;50.974;11.330;2023-03-14T01:04:35;0.40;;;0.40;;
17814;SDS011;9031;50.974;11.330;2023-03-14T01:07:02;2.57;;;0.70;;
17814;SDS011;9031;50.974;11.330;2023-03-14T01:09:28;0.97;;;0.57;;
17814;SDS011;9031;50.974;11.330;2023-03-14T01:11:53;0.80;;;0.60;;
17814;SDS011;9031;50.974;11.330;2023-03-14T01:14:19;0.90;;;0.60;;
17814;SDS011;9031;50.974;11.330;2023-03-14T01:16:44;1.40;;;0.73;;
17814;SDS011;9031;50.974;11.330;2023-03-14T01:19:10;1.13;;;0.60;;
17814;SDS011;9031;50.974;11.330;2023-03-14T01:21:35;2.40;;;0.60;;
17814;SDS011;9031;50.974;11.330;2023-03-14T01:24:02;0.50;;;0.50;;
17814;SDS011;9031;50.974;11.330;2023-03-14T01:26:30;0.90;;;0.50;;
17814;SDS011;9031;50.974;11.330;2023-03-14T01:28:57;1.20;;;0.60;;
17814;SDS011;9031;50.974;11.330;2023-03-14T01:31:23;0.53;;;0.50;;
17814;SDS011;9031;50.974;11.330;2023-03-14T01:33:50;1.20;;;0.60;;
17814;SDS011;9031;50.974;11.330;2023-03-14T01:36:15;1.07;;;0.60;;
17814;SDS011;9031;50.974;11.330;2023-03-14T01:38:41;0.40;;;0.40;;
17814;SDS011;9031;50.974;11.330;2023-03-14T01:41:07;0.90;;;0.43;;
17814;SDS011;9031;50.974;11.330;2023-03-14T01:43:37;1.47;;;0.50;;
17814;SDS011;9031;50.974;11.330;2023-03-14T01:48:42;0.40;;;0.40;;
17814;SDS011;9031;50.974;11.330;2023-03-14T01:51:13;0.67;;;0.57;;
17814;SDS011;9031;50.974;11.330;2023-03-14T01:53:43;0.67;;;0.50;;
17814;SDS011;9031;50.974;11.330;2023-03-14T01:56:11;0.87;;;0.50;;
17814;SDS011;9031;50.974;11.330;2023-03-14T01:58:39;0.60;;;0.50;;
17814;SDS011;9031;50.974;11.330;2023-03-14T02:01:06;1.57;;;0.47;;
17814;SDS011;9031;50.974;11.330;2023-03-14T02:03:35;1.20;;;0.60;;
17814;SDS011;9031;50.974;11.330;2023-03-14T02:06:09;0.50;;;0.50;;
17814;SDS011;9031;50.974;11.330;2023-03-14T02:08:36;1.37;;;0.60;;
17814;SDS011;9031;50.974;11.330;2023-03-14T02:11:04;1.93;;;0.70;;
17814;SDS011;9031;50.974;11.330;2023-03-14T02:13:32;1.07;;;0.53;;
17814;SDS011;9031;50.974;11.330;2023-03-14T02:15:57;0.83;;;0.60;;
17814;SDS011;9031;50.974;11.330;2023-03-14T02:18:23;0.50;;;0.50;;
17814;SDS011;9031;50.974;11.330;2023-03-14T02:23:43;0.70;;;0.57;;
17814;SDS011;9031;50.974;11.330;2023-03-14T02:26:26;1.03;;;0.50;;
17814;SDS011;9031;50.974;11.330;2023-03-14T02:28:56;0.93;;;0.50;;
17814;SDS011;9031;50.974;11.330;2023-03-14T02:31:22;1.50;;;0.60;;
17814;SDS011;9031;50.974;11.330;2023-03-14T02:33:48;1.67;;;0.80;;
17814;SDS011;9031;50.974;11.330;2023-03-14T02:36:15;1.03;;;0.60;;
17814;SDS011;9031;50.974;11.330;2023-03-14T02:38:45;3.37;;;0.80;;
17814;SDS011;9031;50.974;11.330;2023-03-14T02:41:15;2.27;;;0.60;;
17814;SDS011;9031;50.974;11.330;2023-03-14T02:43:41;2.77;;;0.70;;
17814;SDS011;9031;50.974;11.330;2023-03-14T02:46:07;4.17;;;0.90;;
17814;SDS011;9031;50.974;11.330;2023-03-14T02:48:43;2.20;;;0.63;;
17814;SDS011;9031;50.974;11.330;2023-03-14T02:51:15;0.50;;;0.50;;
17814;SDS011;9031;50.974;11.330;2023-03-14T02:53:41;1.67;;;0.77;;
17814;SDS011;9031;50.974;11.330;2023-03-14T02:56:08;3.70;;;0.90;;
17814;SDS011;9031;50.974;11.330;2023-03-14T02:58:34;1.93;;;0.77;;
17814;SDS011;9031;50.974;11.330;2023-03-14T03:01:00;2.20;;;0.60;;
17814;SDS011;9031;50.974;11.330;2023-03-14T03:03:25;2.83;;;0.80;;
17814;SDS011;9031;50.974;11.330;2023-03-14T03:05:51;1.17;;;0.50;;
17814;SDS011;9031;50.974;11.330;2023-03-14T03:08:19;1.47;;;0.60;;
17814;SDS011;9031;50.974;11.330;2023-03-14T03:10:45;3.07;;;0.80;;
17814;SDS011;9031;50.974;11.330;2023-03-14T03:13:11;1.63;;;0.70;;
17814;SDS011;9031;50.974;11.330;2023-03-14T03:15:37;1.73;;;0.80;;
17814;SDS011;9031;50.974;11.330;2023-03-14T03:18:02;1.73;;;0.80;;
17814;SDS011;9031;50.974;11.330;2023-03-14T03:20:28;1.17;;;0.70;;
17814;SDS011;9031;50.974;11.330;2023-03-14T03:22:53;1.80;;;0.80;;
17814;SDS011;9031;50.974;11.330;2023-03-14T03:25:19;2.57;;;0.70;;
17814;SDS011;9031;50.974;11.330;2023-03-14T03:27:44;2.03;;;0.77;;
17814;SDS011;9031;50.974;11.330;2023-03-14T03:30:10;2.20;;;0.80;;
17814;SDS011;9031;50.974;11.330;2023-03-14T03:32:36;2.97;;;1.07;;
17814;SDS011;9031;50.974;11.330;2023-03-14T03:35:02;1.77;;;0.70;;
17814;SDS011;9031;50.974;11.330;2023-03-14T03:37:32;2.00;;;0.87;;
17814;SDS011;9031;50.974;11.330;2023-03-14T03:39:58;2.77;;;0.87;;
17814;SDS011;9031;50.974;11.330;2023-03-14T03:42:23;2.50;;;0.80;;
17814;SDS011;9031;50.974;11.330;2023-03-14T03:44:50;3.00;;;0.90;;
17814;SDS011;9031;50.974;11.330;2023-03-14T03:47:16;3.87;;;0.70;;
17814;SDS011;9031;50.974;11.330;2023-03-14T03:49:41;2.00;;;1.03;;
17814;SDS011;9031;50.974;11.330;2023-03-14T03:52:07;3.33;;;0.80;;
17814;SDS011;9031;50.974;11.330;2023-03-14T03:54:33;3.00;;;0.83;;
17814;SDS011;9031;50.974;11.330;2023-03-14T03:56:59;3.80;;;0.80;;
17814;SDS011;9031;50.974;11.330;2023-03-14T03:59:25;2.73;;;0.80;;
17814;SDS011;9031;50.974;11.330;2023-03-14T04:01:50;4.83;;;1.13;;
17814;SDS011;9031;50.974;11.330;2023-03-14T04:04:16;2.47;;;0.90;;
17814;SDS011;9031;50.974;11.330;2023-03-14T04:06:41;4.13;;;1.00;;
17814;SDS011;9031;50.974;11.330;2023-03-14T04:09:07;2.23;;;1.00;;
17814;SDS011;9031;50.974;11.330;2023-03-14T04:11:36;2.73;;;0.70;;
17814;SDS011;9031;50.974;11.330;2023-03-14T04:14:02;5.67;;;1.07;;
17814;SDS011;9031;50.974;11.330;2023-03-14T04:16:28;4.10;;;1.07;;
17814;SDS011;9031;50.974;11.330;2023-03-14T04:18:56;1.53;;;0.80;;
17814;SDS011;9031;50.974;11.330;2023-03-14T04:21:22;6.07;;;1.20;;
17814;SDS011;9031;50.974;11.330;2023-03-14T04:23:47;2.93;;;0.90;;
17814;SDS011;9031;50.974;11.330;2023-03-14T04:26:13;4.77;;;1.00;;
17814;SDS011;9031;50.974;11.330;2023-03-14T04:28:38;3.83;;;1.00;;
17814;SDS011;9031;50.974;11.330;2023-03-14T04:31:11;2.43;;;0.80;;
17814;SDS011;9031;50.974;11.330;2023-03-14T04:33:38;4.53;;;0.90;;
17814;SDS011;9031;50.974;11.330;2023-03-14T04:36:05;1.63;;;1.00;;
17814;SDS011;9031;50.974;11.330;2023-03-14T04:38:31;2.60;;;0.70;;
17814;SDS011;9031;50.974;11.330;2023-03-14T04:40:57;2.57;;;0.90;;
17814;SDS011;9031;50.974;11.330;2023-03-14T04:43:24;4.67;;;1.00;;
17814;SDS011;9031;50.974;11.330;2023-03-14T04:45:50;0.97;;;0.67;;
17814;SDS011;9031;50.974;11.330;2023-03-14T04:48:18;1.43;;;0.90;;
17814;SDS011;9031;50.974;11.330;2023-03-14T04:50:43;2.77;;;0.70;;
17814;SDS011;9031;50.974;11.330;2023-03-14T04:53:09;1.13;;;0.63;;
17814;SDS011;9031;50.974;11.330;2023-03-14T04:55:34;1.73;;;0.80;;
17814;SDS011;9031;50.974;11.330;2023-03-14T04:58:00;1.10;;;0.70;;
17814;SDS011;9031;50.974;11.330;2023-03-14T05:00:25;1.47;;;0.77;;
17814;SDS011;9031;50.974;11.330;2023-03-14T05:02:51;2.73;;;0.90;;
17814;SDS011;9031;50.974;11.330;2023-03-14T05:05:16;1.80;;;0.70;;
17814;SDS011;9031;50.974;11.330;2023-03-14T05:07:42;4.43;;;0.77;;
17814;SDS011;9031;50.974;11.330;2023-03-14T05:10:08;2.57;;;0.67;;
17814;SDS011;9031;50.974;11.330;2023-03-14T05:12:34;2.10;;;0.70;;
17814;SDS011;9031;50.974;11.330;2023-03-14T05:15:00;3.13;;;0.87;;
17814;SDS011;9031;50.974;11.330;2023-03-14T05:17:25;2.30;;;0.80;;
17814;SDS011;9031;50.974;11.330;2023-03-14T05:19:51;1.47;;;0.60;;
17814;SDS011;9031;50.974;11.330;2023-03-14T05:22:16;2.70;;;0.80;;
17814;SDS011;9031;50.974;11.330;2023-03-14T05:24:42;2.53;;;0.90;;
17814;SDS011;9031;50.974;11.330;2023-03-14T05:27:07;2.13;;;0.60;;
17814;SDS011;9031;50.974;11.330;2023-03-14T05:29:33;1.00;;;0.70;;
17814;SDS011;9031;50.974;11.330;2023-03-14T05:31:58;2.20;;;0.90;;
17814;SDS011;9031;50.974;11.330;2023-03-14T05:34:24;2.77;;;0.67;;
17814;SDS011;9031;50.974;11.330;2023-03-14T05:36:49;1.67;;;0.63;;
17814;SDS011;9031;50.974;11.330;2023-03-14T05:39:14;1.43;;;0.77;;
17814;SDS011;9031;50.974;11.330;2023-03-14T05:41:40;2.73;;;0.90;;
17814;SDS011;9031;50.974;11.330;2023-03-14T05:44:05;0.93;;;0.60;;
17814;SDS011;9031;50.974;11.330;2023-03-14T05:46:31;1.83;;;0.70;;
17814;SDS011;9031;50.974;11.330;2023-03-14T05:48:57;1.90;;;0.80;;
17814;SDS011;9031;50.974;11.330;2023-03-14T05:51:23;1.27;;;0.63;;
17814;SDS011;9031;50.974;11.330;2023-03-14T05:53:49;1.90;;;0.70;;
17814;SDS011;9031;50.974;11.330;2023-03-14T05:56:15;1.27;;;0.80;;
17814;SDS011;9031;50.974;11.330;2023-03-14T05:58:40;2.03;;;0.80;;
17814;SDS011;9031;50.974;11.330;2023-03-14T06:01:06;1.00;;;0.63;;
17814;SDS011;9031;50.974;11.330;2023-03-14T06:03:32;2.97;;;0.87;;
17814;SDS011;9031;50.974;11.330;2023-03-14T06:05:58;2.27;;;0.67;;
17814;SDS011;9031;50.974;11.330;2023-03-14T06:08:24;3.40;;;0.83;;
17814;SDS011;9031;50.974;11.330;2023-03-14T06:10:50;1.67;;;0.77;;
17814;SDS011;9031;50.974;11.330;2023-03-14T06:13:16;3.47;;;0.70;;
17814;SDS011;9031;50.974;11.330;2023-03-14T06:15:42;2.07;;;0.83;;
17814;SDS011;9031;50.974;11.330;2023-03-14T06:18:07;3.33;;;1.00;;
17814;SDS011;9031;50.974;11.330;2023-03-14T06:20:35;1.23;;;0.70;;
17814;SDS011;9031;50.974;11.330;2023-03-14T06:23:01;3.77;;;0.80;;
17814;SDS011;9031;50.974;11.330;2023-03-14T06:25:26;2.00;;;0.63;;
17814;SDS011;9031;50.974;11.330;2023-03-14T06:27:52;2.87;;;0.93;;
17814;SDS011;9031;50.974;11.330;2023-03-14T06:30:17;2.30;;;0.70;;
17814;SDS011;9031;50.974;11.330;2023-03-14T06:32:43;3.50;;;1.00;;
17814;SDS011;9031;50.974;11.330;2023-03-14T06:35:09;3.43;;;0.77;;
17814;SDS011;9031;50.974;11.330;2023-03-14T06:37:34;1.57;;;0.80;;
17814;SDS011;9031;50.974;11.330;2023-03-14T06:39:59;0.77;;;0.70;;
17814;SDS011;9031;50.974;11.330;2023-03-14T06:42:25;1.70;;;0.70;;
17814;SDS011;9031;50.974;11.330;2023-03-14T06:44:50;1.70;;;0.60;;
17814;SDS011;9031;50.974;11.330;2023-03-14T06:47:16;2.67;;;0.80;;
17814;SDS011;9031;50.974;11.330;2023-03-14T06:49:41;0.97;;;0.70;;
17814;SDS011;9031;50.974;11.330;2023-03-14T06:52:07;1.77;;;0.90;;
17814;SDS011;9031;50.974;11.330;2023-03-14T06:54:32;3.37;;;0.77;;
17814;SDS011;9031;50.974;11.330;2023-03-14T06:56:58;2.80;;;0.63;;
17814;SDS011;9031;50.974;11.330;2023-03-14T06:59:23;1.67;;;0.70;;
17814;SDS011;9031;50.974;11.330;2023-03-14T07:01:49;1.90;;;0.63;;
17814;SDS011;9031;50.974;11.330;2023-03-14T07:04:15;1.47;;;0.70;;
17814;SDS011;9031;50.974;11.330;2023-03-14T07:06:41;2.83;;;0.80;;
17814;SDS011;9031;50.974;11.330;2023-03-14T07:09:09;2.27;;;0.93;;
17814;SDS011;9031;50.974;11.330;2023-03-14T07:11:35;1.07;;;0.73;;
17814;SDS011;9031;50.974;11.330;2023-03-14T07:14:01;1.97;;;0.60;;
17814;SDS011;9031;50.974;11.330;2023-03-14T07:16:26;0.90;;;0.60;;
17814;SDS011;9031;50.974;11.330;2023-03-14T07:18:53;2.40;;;0.93;;
17814;SDS011;9031;50.974;11.330;2023-03-14T07:21:19;1.40;;;0.50;;
17814;SDS011;9031;50.974;11.330;2023-03-14T07:23:44;1.07;;;0.40;;
17814;SDS011;9031;50.974;11.330;2023-03-14T07:26:10;1.27;;;0.70;;
17814;SDS011;9031;50.974;11.330;2023-03-14T07:28:35;1.13;;;0.70;;
17814;SDS011;9031;50.974;11.330;2023-03-14T07:31:01;3.30;;;0.70;;
17814;SDS011;9031;50.974;11.330;2023-03-14T07:33:26;1.90;;;0.53;;
17814;SDS011;9031;50.974;11.330;2023-03-14T07:35:52;2.67;;;0.60;;
17814;SDS011;9031;50.974;11.330;2023-03-14T07:38:17;1.10;;;0.70;;
17814;SDS011;9031;50.974;11.330;2023-03-14T07:40:43;0.60;;;0.50;;
17814;SDS011;9031;50.974;11.330;2023-03-14T07:43:08;1.63;;;0.67;;
17814;SDS011;9031;50.974;11.330;2023-03-14T07:45:34;1.07;;;0.40;;
17814;SDS011;9031;50.974;11.330;2023-03-14T07:47:59;1.27;;;0.60;;
17814;SDS011;9031;50.974;11.330;2023-03-14T07:50:27;3.00;;;0.70;;
17814;SDS011;9031;50.974;11.330;2023-03-14T07:52:53;1.63;;;0.50;;
17814;SDS011;9031;50.974;11.330;2023-03-14T07:55:19;0.87;;;0.57;;
17814;SDS011;9031;50.974;11.330;2023-03-14T07:57:44;1.27;;;0.50;;
17814;SDS011;9031;50.974;11.330;2023-03-14T08:00:10;0.83;;;0.50;;
17814;SDS011;9031;50.974;11.330;2023-03-14T08:02:36;1.67;;;0.60;;
17814;SDS011;9031;50.974;11.330;2023-03-14T08:05:02;1.40;;;0.60;;
17814;SDS011;9031;50.974;11.330;2023-03-14T08:07:28;0.77;;;0.50;;
17814;SDS011;9031;50.974;11.330;2023-03-14T08:09:54;1.60;;;0.53;;
17814;SDS011;9031;50.974;11.330;2023-03-14T08:12:20;1.47;;;0.50;;
17814;SDS011;9031;50.974;11.330;2023-03-14T08:14:45;1.00;;;0.40;;
17814;SDS011;9031;50.974;11.330;2023-03-14T08:17:11;1.43;;;0.40;;
17814;SDS011;9031;50.974;11.330;2023-03-14T08:19:36;1.70;;;0.43;;
17814;SDS011;9031;50.974;11.330;2023-03-14T08:22:02;2.00;;;0.40;;
17814;SDS011;9031;50.974;11.330;2023-03-14T08:24:29;0.90;;;0.40;;
17814;SDS011;9031;50.974;11.330;2023-03-14T08:26:54;1.40;;;0.40;;
17814;SDS011;9031;50.974;11.330;2023-03-14T08:29:20;1.03;;;0.50;;
17814;SDS011;9031;50.974;11.330;2023-03-14T08:31:45;1.50;;;0.40;;
17814;SDS011;9031;50.974;11.330;2023-03-14T08:34:11;0.93;;;0.50;;
17814;SDS011;9031;50.974;11.330;2023-03-14T08:36:36;2.77;;;0.87;;
17814;SDS011;9031;50.974;11.330;2023-03-14T08:39:02;2.10;;;0.50;;
17814;SDS011;9031;50.974;11.330;2023-03-14T08:41:28;1.57;;;0.40;;
17814;SDS011;9031;50.974;11.330;2023-03-14T08:43:54;1.50;;;0.50;;
17814;SDS011;9031;50.974;11.330;2023-03-14T08:46:20;0.83;;;0.30;;
17814;SDS011;9031;50.974;11.330;2023-03-14T08:48:46;0.30;;;0.30;;
17814;SDS011;9031;50.974;11.330;2023-03-14T08:51:12;2.33;;;0.50;;
17814;SDS011;9031;50.974;11.330;2023-03-14T08:53:42;0.40;;;0.30;;
17814;SDS011;9031;50.974;11.330;2023-03-14T08:56:07;1.30;;;0.67;;
17814;SDS011;9031;50.974;11.330;2023-03-14T08:58:34;0.70;;;0.43;;
17814;SDS011;9031;50.974;11.330;2023-03-14T09:01:02;0.80;;;0.40;;
17814;SDS011;9031;50.974;11.330;2023-03-14T09:03:29;1.07;;;0.40;;
17814;SDS011;9031;50.974;11.330;2023-03-14T09:05:55;0.50;;;0.30;;
17814;SDS011;9031;50.974;11.330;2023-03-14T09:08:20;0.90;;;0.40;;
17814;SDS011;9031;50.974;11.330;2023-03-14T09:10:46;0.67;;;0.40;;
17814;SDS011;9031;50.974;11.330;2023-03-14T09:13:11;0.67;;;0.40;;
17814;SDS011;9031;50.974;11.330;2023-03-14T09:15:37;0.40;;;0.30;;
17814;SDS011;9031;50.974;11.330;2023-03-14T09:18:02;1.20;;;0.30;;
17814;SDS011;9031;50.974;11.330;2023-03-14T09:20:28;1.47;;;0.37;;
17814;SDS011;9031;50.974;11.330;2023-03-14T09:22:53;1.27;;;0.37;;
17814;SDS011;9031;50.974;11.330;2023-03-14T09:25:19;1.40;;;0.40;;
17814;SDS011;9031;50.974;11.330;2023-03-14T09:27:44;0.43;;;0.23;;
17814;SDS011;9031;50.974;11.330;2023-03-14T09:30:10;2.13;;;0.37;;
17814;SDS011;9031;50.974;11.330;2023-03-14T09:32:36;0.60;;;0.30;;
17814;SDS011;9031;50.974;11.330;2023-03-14T09:35:01;0.63;;;0.40;;
17814;SDS011;9031;50.974;11.330;2023-03-14T09:37:27;0.63;;;0.30;;
17814;SDS011;9031;50.974;11.330;2023-03-14T09:39:53;1.20;;;0.50;;
17814;SDS011;9031;50.974;11.330;2023-03-14T09:42:20;1.67;;;0.30;;
17814;SDS011;9031;50.974;11.330;2023-03-14T09:44:56;1.33;;;0.30;;
17814;SDS011;9031;50.974;11.330;2023-03-14T09:47:25;0.20;;;0.20;;
17814;SDS011;9031;50.974;11.330;2023-03-14T09:49:51;0.57;;;0.30;;
17814;SDS011;9031;50.974;11.330;2023-03-14T09:54:56;0.30;;;0.30;;
17814;SDS011;9031;50.974;11.330;2023-03-14T09:57:25;0.60;;;0.20;;
17814;SDS011;9031;50.974;11.330;2023-03-14T09:59:52;0.20;;;0.20;;
17814;SDS011;9031;50.974;11.330;2023-03-14T10:02:22;0.50;;;0.30;;
17814;SDS011;9031;50.974;11.330;2023-03-14T10:04:50;1.17;;;0.30;;
17814;SDS011;9031;50.974;11.330;2023-03-14T10:07:19;0.40;;;0.27;;
17814;SDS011;9031;50.974;11.330;2023-03-14T10:09:50;0.43;;;0.30;;
17814;SDS011;9031;50.974;11.330;2023-03-14T10:12:16;0.10;;;0.10;;
17814;SDS011;9031;50.974;11.330;2023-03-14T10:14:47;0.40;;;0.40;;
17814;SDS011;9031;50.974;11.330;2023-03-14T10:17:15;0.30;;;0.30;;
17814;SDS011;9031;50.974;11.330;2023-03-14T10:19:52;0.20;;;0.20;;
17814;SDS011;9031;50.974;11.330;2023-03-14T10:22:23;0.30;;;0.20;;
17814;SDS011;9031;50.974;11.330;2023-03-14T10:24:53;1.37;;;0.30;;
17814;SDS011;9031;50.974;11.330;2023-03-14T10:27:29;0.87;;;0.40;;
17814;SDS011;9031;50.974;11.330;2023-03-14T10:29:58;0.20;;;0.20;;
17814;SDS011;9031;50.974;11.330;2023-03-14T10:32:28;1.43;;;0.40;;
17814;SDS011;9031;50.974;11.330;2023-03-14T10:35:30;1.13;;;0.23;;
17814;SDS011;9031;50.974;11.330;2023-03-14T10:37:53;1.33;;;0.30;;
17814;SDS011;9031;50.974;11.330;2023-03-14T10:43:19;0.40;;;0.20;;
17814;SDS011;9031;50.974;11.330;2023-03-14T10:45:58;0.77;;;0.27;;
17814;SDS011;9031;50.974;11.330;2023-03-14T10:48:33;0.53;;;0.20;;
17814;SDS011;9031;50.974;11.330;2023-03-14T10:51:19;0.70;;;0.43;;
17814;SDS011;9031;50.974;11.330;2023-03-14T10:53:58;0.80;;;0.33;;
17814;SDS011;9031;50.974;11.330;2023-03-14T10:56:26;0.77;;;0.20;;
17814;SDS011;9031;50.974;11.330;2023-03-14T10:58:57;0.10;;;0.10;;
17814;SDS011;9031;50.974;11.330;2023-03-14T11:04:21;0.70;;;0.20;;
17814;SDS011;9031;50.974;11.330;2023-03-14T11:09:37;0.73;;;0.20;;
17814;SDS011;9031;50.974;11.330;2023-03-14T11:12:28;0.10;;;0.10;;
17814;SDS011;9031;50.974;11.330;2023-03-14T11:15:15;0.47;;;0.10;;
17814;SDS011;9031;50.974;11.330;2023-03-14T11:20:51;1.03;;;0.20;;
17814;SDS011;9031;50.974;11.330;2023-03-14T11:23:20;2.03;;;0.20;;
17814;SDS011;9031;50.974;11.330;2023-03-14T11:26:01;0.27;;;0.27;;
17814;SDS011;9031;50.974;11.330;2023-03-14T11:28:37;0.20;;;0.20;;
17814;SDS011;9031;50.974;11.330;2023-03-14T11:31:21;0.20;;;0.20;;
17814;SDS011;9031;50.974;11.330;2023-03-14T11:33:55;0.10;;;0.10;;
17814;SDS011;9031;50.974;11.330;2023-03-14T11:36:37;3.30;;;0.20;;
17814;SDS011;9031;50.974;11.330;2023-03-14T11:39:11;0.27;;;0.20;;
17814;SDS011;9031;50.974;11.330;2023-03-14T11:41:41;0.10;;;0.10;;
17814;SDS011;9031;50.974;11.330;2023-03-14T11:44:19;0.20;;;0.20;;
17814;SDS011;9031;50.974;11.330;2023-03-14T11:49:40;1.33;;;0.20;;
17814;SDS011;9031;50.974;11.330;2023-03-14T11:52:16;0.37;;;0.10;;
17814;SDS011;9031;50.974;11.330;2023-03-14T11:55:05;0.73;;;0.00;;
17814;SDS011;9031;50.974;11.330;2023-03-14T11:57:36;0.70;;;0.10;;
17814;SDS011;9031;50.974;11.330;2023-03-14T12:00:06;0.07;;;0.00;;
17814;SDS011;9031;50.974;11.330;2023-03-14T12:10:36;0.13;;;0.00;;
17814;SDS011;9031;50.974;11.330;2023-03-14T12:13:17;1.63;;;0.10;;
17814;SDS011;9031;50.974;11.330;2023-03-14T12:15:56;0.10;;;0.00;;
17814;SDS011;9031;50.974;11.330;2023-03-14T12:20:57;0.30;;;0.10;;
17814;SDS011;9031;50.974;11.330;2023-03-14T12:23:25;0.80;;;0.10;;
17814;SDS011;9031;50.974;11.330;2023-03-14T12:28:36;0.10;;;0.00;;
17814;SDS011;9031;50.974;11.330;2023-03-14T12:34:03;0.10;;;0.10;;
17814;SDS011;9031;50.974;11.330;2023-03-14T12:37:04;1.07;;;0.23;;
17814;SDS011;9031;50.974;11.330;2023-03-14T12:39:45;0.10;;;0.10;;
17814;SDS011;9031;50.974;11.330;2023-03-14T12:42:14;0.03;;;0.00;;
17814;SDS011;9031;50.974;11.330;2023-03-14T12:45:13;1.03;;;0.10;;
17814;SDS011;9031;50.974;11.330;2023-03-14T12:50:07;0.27;;;0.10;;
17814;SDS011;9031;50.974;11.330;2023-03-14T12:55:41;0.60;;;0.10;;
17814;SDS011;9031;50.974;11.330;2023-03-14T12:58:30;0.10;;;0.10;;
17814;SDS011;9031;50.974;11.330;2023-03-14T13:01:04;0.13;;;0.10;;
17814;SDS011;9031;50.974;11.330;2023-03-14T13:04:25;0.20;;;0.10;;
17814;SDS011;9031;50.974;11.330;2023-03-14T13:11:54;0.10;;;0.10;;
17814;SDS011;9031;50.974;11.330;2023-03-14T13:14:20;0.43;;;0.10;;
17814;SDS011;9031;50.974;11.330;2023-03-14T13:16:48;0.10;;;0.10;;
17814;SDS011;9031;50.974;11.330;2023-03-14T13:19:15;0.30;;;0.10;;
17814;SDS011;9031;50.974;11.330;2023-03-14T13:21:48;0.47;;;0.10;;
17814;SDS011;9031;50.974;11.330;2023-03-14T13:24:23;0.50;;;0.10;;
17814;SDS011;9031;50.974;11.330;2023-03-14T13:26:51;0.10;;;0.10;;
17814;SDS011;9031;50.974;11.330;2023-03-14T13:29:19;0.63;;;0.10;;
17814;SDS011;9031;50.974;11.330;2023-03-14T13:31:57;0.10;;;0.10;;
17814;SDS011;9031;50.974;11.330;2023-03-14T13:34:25;0.10;;;0.10;;
17814;SDS011;9031;50.974;11.330;2023-03-14T13:36:55;0.10;;;0.10;;
17814;SDS011;9031;50.974;11.330;2023-03-14T13:39:22;1.23;;;0.20;;
17814;SDS011;9031;50.974;11.330;2023-03-14T13:41:53;0.17;;;0.17;;
17814;SDS011;9031;50.974;11.330;2023-03-14T13:44:33;0.60;;;0.10;;
17814;SDS011;9031;50.974;11.330;2023-03-14T13:47:01;0.20;;;0.20;;
17814;SDS011;9031;50.974;11.330;2023-03-14T13:49:29;0.20;;;0.20;;
17814;SDS011;9031;50.974;11.330;2023-03-14T13:51:57;0.43;;;0.43;;
17814;SDS011;9031;50.974;11.330;2023-03-14T13:54:23;0.20;;;0.20;;
17814;SDS011;9031;50.974;11.330;2023-03-14T13:57:09;0.20;;;0.20;;
17814;SDS011;9031;50.974;11.330;2023-03-14T13:59:35;0.20;;;0.20;;
17814;SDS011;9031;50.974;11.330;2023-03-14T14:02:01;0.50;;;0.20;;
17814;SDS011;9031;50.974;11.330;2023-03-14T14:04:35;0.30;;;0.20;;
17814;SDS011;9031;50.974;11.330;2023-03-14T14:07:06;0.20;;;0.20;;
17814;SDS011;9031;50.974;11.330;2023-03-14T14:09:39;0.20;;;0.20;;
17814;SDS011;9031;50.974;11.330;2023-03-14T14:14:39;0.20;;;0.20;;
17814;SDS011;9031;50.974;11.330;2023-03-14T14:17:09;0.47;;;0.30;;
17814;SDS011;9031;50.974;11.330;2023-03-14T14:19:40;0.20;;;0.20;;
17814;SDS011;9031;50.974;11.330;2023-03-14T14:22:08;0.20;;;0.20;;
17814;SDS011;9031;50.974;11.330;2023-03-14T14:24:35;0.30;;;0.20;;
17814;SDS011;9031;50.974;11.330;2023-03-14T14:28:13;0.47;;;0.30;;
17814;SDS011;9031;50.974;11.330;2023-03-14T14:32:35;0.37;;;0.30;;
17814;SDS011;9031;50.974;11.330;2023-03-14T14:35:02;0.50;;;0.40;;
17814;SDS011;9031;50.974;11.330;2023-03-14T14:43:02;1.30;;;0.63;;
17814;SDS011;9031;50.974;11.330;2023-03-14T14:45:29;2.30;;;0.80;;
17814;SDS011;9031;50.974;11.330;2023-03-14T14:47:55;0.77;;;0.77;;
17814;SDS011;9031;50.974;11.330;2023-03-14T14:50:36;0.80;;;0.70;;
17814;SDS011;9031;50.974;11.330;2023-03-14T14:54:05;1.27;;;0.83;;
17814;SDS011;9031;50.974;11.330;2023-03-14T14:56:46;1.70;;;1.00;;
17814;SDS011;9031;50.974;11.330;2023-03-14T14:58:59;1.37;;;0.70;;
17814;SDS011;9031;50.974;11.330;2023-03-14T15:01:31;2.40;;;0.90;;
17814;SDS011;9031;50.974;11.330;2023-03-14T15:04:03;0.70;;;0.70;;
17814;SDS011;9031;50.974;11.330;2023-03-14T15:06:36;0.70;;;0.70;;
17814;SDS011;9031;50.974;11.330;2023-03-14T15:09:01;1.07;;;0.90;;
17814;SDS011;9031;50.974;11.330;2023-03-14T15:11:27;0.60;;;0.60;;
17814;SDS011;9031;50.974;11.330;2023-03-14T15:13:53;0.60;;;0.60;;
17814;SDS011;9031;50.974;11.330;2023-03-14T15:16:20;0.60;;;0.60;;
17814;SDS011;9031;50.974;11.330;2023-03-14T15:18:54;0.80;;;0.70;;
17814;SDS011;9031;50.974;11.330;2023-03-14T15:21:25;0.80;;;0.80;;
17814;SDS011;9031;50.974;11.330;2023-03-14T15:23:52;0.80;;;0.77;;
17814;SDS011;9031;50.974;11.330;2023-03-14T15:26:19;0.77;;;0.77;;
17814;SDS011;9031;50.974;11.330;2023-03-14T15:28:49;0.70;;;0.70;;
17814;SDS011;9031;50.974;11.330;2023-03-14T15:31:15;0.80;;;0.80;;
17814;SDS011;9031;50.974;11.330;2023-03-14T15:33:42;0.60;;;0.60;;
17814;SDS011;9031;50.974;11.330;2023-03-14T15:38:49;0.87;;;0.87;;
17814;SDS011;9031;50.974;11.330;2023-03-14T15:41:14;0.80;;;0.80;;
17814;SDS011;9031;50.974;11.330;2023-03-14T15:43:40;0.90;;;0.90;;
17814;SDS011;9031;50.974;11.330;2023-03-14T15:46:08;0.90;;;0.90;;
17814;SDS011;9031;50.974;11.330;2023-03-14T15:48:34;0.90;;;0.90;;
17814;SDS011;9031;50.974;11.330;2023-03-14T15:51:00;0.97;;;0.97;;
17814;SDS011;9031;50.974;11.330;2023-03-14T15:53:25;1.03;;;1.00;;
17814;SDS011;9031;50.974;11.330;2023-03-14T15:55:51;1.13;;;1.13;;
17814;SDS011;9031;50.974;11.330;2023-03-14T15:58:17;1.10;;;1.10;;